sensor_id;sensor_type;location;lat;lon;timestamp;P1;durP1;ratioP1;P2;durP2;ratioP2
18693;SDS011;9477;51.414;10.362;2023-02-14T00:01:18;216.63;;;12.63;;
18693;SDS011;9477;51.414;10.362;2023-02-14T00:03:26;182.00;;;13.00;;
18693;SDS011;9477;51.414;10.362;2023-02-14T00:05:40;337.57;;;16.17;;
18693;SDS011;9477;51.414;10.362;2023-02-14T00:07:46;279.60;;;15.17;;
18693;SDS011;9477;51.414;10.362;2023-02-14T00:09:48;117.60;;;10.77;;
18693;SDS011;9477;51.414;10.362;2023-02-14T00:11:52;119.80;;;12.37;;
18693;SDS011;9477;51.414;10.362;2023-02-14T00:13:55;65.67;;;10.43;;
18693;SDS011;9477;51.414;10.362;2023-02-14T00:16:16;49.47;;;9.60;;
18693;SDS011;9477;51.414;10.362;2023-02-14T00:18:19;46.40;;;9.70;;
18693;SDS011;9477;51.414;10.362;2023-02-14T00:20:22;15.47;;;8.03;;
18693;SDS011;9477;51.414;10.362;2023-02-14T00:22:37;12.33;;;9.00;;
18693;SDS011;9477;51.414;10.362;2023-02-14T00:24:40;11.97;;;8.73;;
18693;SDS011;9477;51.414;10.362;2023-02-14T00:26:42;11.60;;;8.60;;
18693;SDS011;9477;51.414;10.362;2023-02-14T00:28:47;10.37;;;8.00;;
18693;SDS011;9477;51.414;10.362;2023-02-14T00:30:50;11.63;;;8.67;;
18693;SDS011;9477;51.414;10.362;2023-02-14T00:32:52;9.43;;;7.00;;
18693;SDS011;9477;51.414;10.362;2023-02-14T00:34:55;7.60;;;6.60;;
18693;SDS011;9477;51.414;10.362;2023-02-14T00:36:58;11.23;;;9.33;;
18693;SDS011;9477;51.414;10.362;2023-02-14T00:39:01;11.10;;;8.67;;
18693;SDS011;9477;51.414;10.362;2023-02-14T00:41:04;10.70;;;8.60;;
18693;SDS011;9477;51.414;10.362;2023-02-14T00:43:07;12.00;;;9.43;;
18693;SDS011;9477;51.414;10.362;2023-02-14T00:45:11;10.67;;;8.33;;
18693;SDS011;9477;51.414;10.362;2023-02-14T00:47:14;12.27;;;9.10;;
18693;SDS011;9477;51.414;10.362;2023-02-14T00:49:17;12.20;;;9.40;;
18693;SDS011;9477;51.414;10.362;2023-02-14T00:51:22;11.00;;;8.43;;
18693;SDS011;9477;51.414;10.362;2023-02-14T00:53:25;11.03;;;8.57;;
18693;SDS011;9477;51.414;10.362;2023-02-14T00:55:28;9.63;;;7.90;;
18693;SDS011;9477;51.414;10.362;2023-02-14T00:57:30;11.70;;;8.80;;
18693;SDS011;9477;51.414;10.362;2023-02-14T00:59:33;12.63;;;9.30;;
18693;SDS011;9477;51.414;10.362;2023-02-14T01:01:37;10.47;;;8.07;;
18693;SDS011;9477;51.414;10.362;2023-02-14T01:03:40;11.77;;;8.67;;
18693;SDS011;9477;51.414;10.362;2023-02-14T01:05:43;11.67;;;8.87;;
18693;SDS011;9477;51.414;10.362;2023-02-14T01:07:46;12.63;;;9.17;;
18693;SDS011;9477;51.414;10.362;2023-02-14T01:09:48;10.83;;;8.50;;
18693;SDS011;9477;51.414;10.362;2023-02-14T01:11:51;11.07;;;8.60;;
18693;SDS011;9477;51.414;10.362;2023-02-14T01:13:55;12.97;;;9.00;;
18693;SDS011;9477;51.414;10.362;2023-02-14T01:16:03;14.47;;;9.13;;
18693;SDS011;9477;51.414;10.362;2023-02-14T01:18:09;9.53;;;7.80;;
18693;SDS011;9477;51.414;10.362;2023-02-14T01:20:11;14.47;;;9.20;;
18693;SDS011;9477;51.414;10.362;2023-02-14T01:22:15;10.50;;;8.47;;
18693;SDS011;9477;51.414;10.362;2023-02-14T01:24:18;10.23;;;7.70;;
18693;SDS011;9477;51.414;10.362;2023-02-14T01:26:20;10.47;;;7.87;;
18693;SDS011;9477;51.414;10.362;2023-02-14T01:28:23;11.13;;;8.13;;
18693;SDS011;9477;51.414;10.362;2023-02-14T01:30:26;9.87;;;8.00;;
18693;SDS011;9477;51.414;10.362;2023-02-14T01:32:29;10.77;;;8.20;;
18693;SDS011;9477;51.414;10.362;2023-02-14T01:34:34;9.90;;;7.73;;
18693;SDS011;9477;51.414;10.362;2023-02-14T01:36:37;9.47;;;7.80;;
18693;SDS011;9477;51.414;10.362;2023-02-14T01:38:41;9.90;;;7.50;;
18693;SDS011;9477;51.414;10.362;2023-02-14T01:40:43;8.53;;;6.87;;
18693;SDS011;9477;51.414;10.362;2023-02-14T01:42:46;9.63;;;7.53;;
18693;SDS011;9477;51.414;10.362;2023-02-14T01:45:01;9.83;;;7.83;;
18693;SDS011;9477;51.414;10.362;2023-02-14T01:47:07;11.60;;;8.57;;
18693;SDS011;9477;51.414;10.362;2023-02-14T01:49:13;11.73;;;8.67;;
18693;SDS011;9477;51.414;10.362;2023-02-14T01:51:19;11.13;;;8.27;;
18693;SDS011;9477;51.414;10.362;2023-02-14T01:53:24;10.27;;;8.10;;
18693;SDS011;9477;51.414;10.362;2023-02-14T01:55:31;10.67;;;8.67;;
18693;SDS011;9477;51.414;10.362;2023-02-14T01:57:38;9.73;;;8.00;;
18693;SDS011;9477;51.414;10.362;2023-02-14T01:59:47;9.73;;;7.53;;
18693;SDS011;9477;51.414;10.362;2023-02-14T02:01:54;11.83;;;8.40;;
18693;SDS011;9477;51.414;10.362;2023-02-14T02:03:57;11.53;;;8.53;;
18693;SDS011;9477;51.414;10.362;2023-02-14T02:06:05;10.47;;;8.47;;
18693;SDS011;9477;51.414;10.362;2023-02-14T02:08:13;11.03;;;8.13;;
18693;SDS011;9477;51.414;10.362;2023-02-14T02:10:17;9.47;;;7.57;;
18693;SDS011;9477;51.414;10.362;2023-02-14T02:12:19;10.40;;;7.90;;
18693;SDS011;9477;51.414;10.362;2023-02-14T02:14:23;10.10;;;7.97;;
18693;SDS011;9477;51.414;10.362;2023-02-14T02:19:00;10.77;;;7.73;;
18693;SDS011;9477;51.414;10.362;2023-02-14T02:29:05;11.83;;;8.43;;
18693;SDS011;9477;51.414;10.362;2023-02-14T02:31:31;12.00;;;8.50;;
18693;SDS011;9477;51.414;10.362;2023-02-14T02:33:53;10.37;;;8.10;;
18693;SDS011;9477;51.414;10.362;2023-02-14T02:36:31;11.23;;;8.67;;
18693;SDS011;9477;51.414;10.362;2023-02-14T02:38:49;11.40;;;7.90;;
18693;SDS011;9477;51.414;10.362;2023-02-14T02:41:07;10.30;;;8.30;;
18693;SDS011;9477;51.414;10.362;2023-02-14T02:43:20;10.63;;;8.63;;
18693;SDS011;9477;51.414;10.362;2023-02-14T02:45:36;11.10;;;8.50;;
18693;SDS011;9477;51.414;10.362;2023-02-14T02:48:02;10.60;;;8.20;;
18693;SDS011;9477;51.414;10.362;2023-02-14T02:50:17;13.23;;;8.57;;
18693;SDS011;9477;51.414;10.362;2023-02-14T02:52:43;44.77;;;9.00;;
18693;SDS011;9477;51.414;10.362;2023-02-14T02:55:06;54.03;;;9.57;;
18693;SDS011;9477;51.414;10.362;2023-02-14T02:57:21;95.57;;;10.93;;
18693;SDS011;9477;51.414;10.362;2023-02-14T02:59:28;86.60;;;11.37;;
18693;SDS011;9477;51.414;10.362;2023-02-14T03:01:33;86.33;;;11.10;;
18693;SDS011;9477;51.414;10.362;2023-02-14T03:03:38;81.73;;;11.37;;
18693;SDS011;9477;51.414;10.362;2023-02-14T03:06:01;85.47;;;10.73;;
18693;SDS011;9477;51.414;10.362;2023-02-14T03:08:05;93.97;;;10.60;;
18693;SDS011;9477;51.414;10.362;2023-02-14T03:10:10;51.73;;;10.27;;
18693;SDS011;9477;51.414;10.362;2023-02-14T03:12:17;52.40;;;9.73;;
18693;SDS011;9477;51.414;10.362;2023-02-14T03:14:44;58.80;;;10.00;;
18693;SDS011;9477;51.414;10.362;2023-02-14T03:16:58;65.57;;;9.00;;
18693;SDS011;9477;51.414;10.362;2023-02-14T03:21:39;57.47;;;9.57;;
18693;SDS011;9477;51.414;10.362;2023-02-14T03:23:48;56.20;;;9.20;;
18693;SDS011;9477;51.414;10.362;2023-02-14T03:26:00;44.03;;;9.23;;
18693;SDS011;9477;51.414;10.362;2023-02-14T03:28:10;41.73;;;9.27;;
18693;SDS011;9477;51.414;10.362;2023-02-14T03:30:18;37.00;;;9.37;;
18693;SDS011;9477;51.414;10.362;2023-02-14T03:32:28;48.70;;;9.13;;
18693;SDS011;9477;51.414;10.362;2023-02-14T03:34:37;69.80;;;9.53;;
18693;SDS011;9477;51.414;10.362;2023-02-14T03:36:47;27.10;;;8.73;;
18693;SDS011;9477;51.414;10.362;2023-02-14T03:38:55;36.87;;;9.60;;
18693;SDS011;9477;51.414;10.362;2023-02-14T03:41:06;36.60;;;8.63;;
18693;SDS011;9477;51.414;10.362;2023-02-14T03:43:13;53.70;;;9.83;;
18693;SDS011;9477;51.414;10.362;2023-02-14T03:45:21;45.73;;;9.43;;
18693;SDS011;9477;51.414;10.362;2023-02-14T03:47:28;37.20;;;8.97;;
18693;SDS011;9477;51.414;10.362;2023-02-14T03:49:35;159.97;;;11.43;;
18693;SDS011;9477;51.414;10.362;2023-02-14T03:51:41;92.87;;;10.00;;
18693;SDS011;9477;51.414;10.362;2023-02-14T03:53:48;122.03;;;10.47;;
18693;SDS011;9477;51.414;10.362;2023-02-14T03:55:57;86.57;;;10.67;;
18693;SDS011;9477;51.414;10.362;2023-02-14T03:58:05;73.03;;;8.43;;
18693;SDS011;9477;51.414;10.362;2023-02-14T04:00:12;40.43;;;8.73;;
18693;SDS011;9477;51.414;10.362;2023-02-14T04:02:18;46.37;;;9.60;;
18693;SDS011;9477;51.414;10.362;2023-02-14T04:04:26;43.73;;;8.07;;
18693;SDS011;9477;51.414;10.362;2023-02-14T04:06:32;74.03;;;10.37;;
18693;SDS011;9477;51.414;10.362;2023-02-14T04:08:34;79.77;;;10.20;;
18693;SDS011;9477;51.414;10.362;2023-02-14T04:10:37;75.43;;;9.77;;
18693;SDS011;9477;51.414;10.362;2023-02-14T04:12:44;111.03;;;10.80;;
18693;SDS011;9477;51.414;10.362;2023-02-14T04:14:47;82.63;;;10.13;;
18693;SDS011;9477;51.414;10.362;2023-02-14T04:16:50;48.27;;;9.47;;
18693;SDS011;9477;51.414;10.362;2023-02-14T04:19:11;70.30;;;11.07;;
18693;SDS011;9477;51.414;10.362;2023-02-14T04:21:30;123.70;;;11.90;;
18693;SDS011;9477;51.414;10.362;2023-02-14T04:23:33;111.77;;;9.77;;
18693;SDS011;9477;51.414;10.362;2023-02-14T04:25:36;118.90;;;10.07;;
18693;SDS011;9477;51.414;10.362;2023-02-14T04:27:40;188.93;;;11.07;;
18693;SDS011;9477;51.414;10.362;2023-02-14T04:29:45;84.50;;;9.90;;
18693;SDS011;9477;51.414;10.362;2023-02-14T04:31:49;110.20;;;10.13;;
18693;SDS011;9477;51.414;10.362;2023-02-14T04:33:52;80.57;;;9.60;;
18693;SDS011;9477;51.414;10.362;2023-02-14T04:35:55;159.83;;;8.67;;
18693;SDS011;9477;51.414;10.362;2023-02-14T04:37:57;119.70;;;8.00;;
18693;SDS011;9477;51.414;10.362;2023-02-14T04:40:01;216.63;;;10.17;;
18693;SDS011;9477;51.414;10.362;2023-02-14T04:42:04;192.67;;;10.87;;
18693;SDS011;9477;51.414;10.362;2023-02-14T04:44:08;122.57;;;9.10;;
18693;SDS011;9477;51.414;10.362;2023-02-14T04:46:12;127.23;;;9.57;;
18693;SDS011;9477;51.414;10.362;2023-02-14T04:48:14;215.00;;;10.53;;
18693;SDS011;9477;51.414;10.362;2023-02-14T04:50:17;170.93;;;9.90;;
18693;SDS011;9477;51.414;10.362;2023-02-14T04:52:20;164.27;;;10.30;;
18693;SDS011;9477;51.414;10.362;2023-02-14T04:54:23;115.10;;;12.40;;
18693;SDS011;9477;51.414;10.362;2023-02-14T04:56:26;377.17;;;14.50;;
18693;SDS011;9477;51.414;10.362;2023-02-14T04:58:29;155.60;;;10.43;;
18693;SDS011;9477;51.414;10.362;2023-02-14T05:00:31;119.53;;;10.37;;
18693;SDS011;9477;51.414;10.362;2023-02-14T05:02:35;165.77;;;11.20;;
18693;SDS011;9477;51.414;10.362;2023-02-14T05:04:38;166.90;;;10.77;;
18693;SDS011;9477;51.414;10.362;2023-02-14T05:06:41;189.00;;;10.77;;
18693;SDS011;9477;51.414;10.362;2023-02-14T05:08:44;187.97;;;8.43;;
18693;SDS011;9477;51.414;10.362;2023-02-14T05:10:47;166.83;;;10.20;;
18693;SDS011;9477;51.414;10.362;2023-02-14T05:12:50;123.33;;;9.23;;
18693;SDS011;9477;51.414;10.362;2023-02-14T05:14:52;185.20;;;10.00;;
18693;SDS011;9477;51.414;10.362;2023-02-14T05:16:56;86.97;;;8.07;;
18693;SDS011;9477;51.414;10.362;2023-02-14T05:19:00;192.17;;;10.57;;
18693;SDS011;9477;51.414;10.362;2023-02-14T05:21:03;109.83;;;8.80;;
18693;SDS011;9477;51.414;10.362;2023-02-14T05:23:06;85.57;;;9.60;;
18693;SDS011;9477;51.414;10.362;2023-02-14T05:25:13;183.60;;;10.90;;
18693;SDS011;9477;51.414;10.362;2023-02-14T05:27:16;174.97;;;10.20;;
18693;SDS011;9477;51.414;10.362;2023-02-14T05:29:19;122.87;;;8.23;;
18693;SDS011;9477;51.414;10.362;2023-02-14T05:31:21;114.10;;;7.83;;
18693;SDS011;9477;51.414;10.362;2023-02-14T05:33:24;221.63;;;9.87;;
18693;SDS011;9477;51.414;10.362;2023-02-14T05:35:29;123.33;;;8.73;;
18693;SDS011;9477;51.414;10.362;2023-02-14T05:37:33;123.73;;;9.10;;
18693;SDS011;9477;51.414;10.362;2023-02-14T05:39:35;143.20;;;9.50;;
18693;SDS011;9477;51.414;10.362;2023-02-14T05:41:38;114.80;;;8.50;;
18693;SDS011;9477;51.414;10.362;2023-02-14T05:43:41;106.77;;;8.83;;
18693;SDS011;9477;51.414;10.362;2023-02-14T05:45:44;100.87;;;9.20;;
18693;SDS011;9477;51.414;10.362;2023-02-14T05:47:46;76.70;;;8.50;;
18693;SDS011;9477;51.414;10.362;2023-02-14T05:49:50;43.67;;;7.63;;
18693;SDS011;9477;51.414;10.362;2023-02-14T05:51:54;31.13;;;7.33;;
18693;SDS011;9477;51.414;10.362;2023-02-14T05:53:57;41.93;;;7.43;;
18693;SDS011;9477;51.414;10.362;2023-02-14T05:56:00;36.00;;;7.37;;
18693;SDS011;9477;51.414;10.362;2023-02-14T05:58:03;22.07;;;11.67;;
18693;SDS011;9477;51.414;10.362;2023-02-14T06:00:06;28.53;;;8.43;;
18693;SDS011;9477;51.414;10.362;2023-02-14T06:02:10;29.27;;;12.20;;
18693;SDS011;9477;51.414;10.362;2023-02-14T06:04:14;43.87;;;10.07;;
18693;SDS011;9477;51.414;10.362;2023-02-14T06:06:17;16.57;;;6.83;;
18693;SDS011;9477;51.414;10.362;2023-02-14T06:08:21;26.30;;;7.33;;
18693;SDS011;9477;51.414;10.362;2023-02-14T06:10:24;27.50;;;7.07;;
18693;SDS011;9477;51.414;10.362;2023-02-14T06:12:27;39.20;;;8.10;;
18693;SDS011;9477;51.414;10.362;2023-02-14T06:14:30;36.80;;;7.50;;
18693;SDS011;9477;51.414;10.362;2023-02-14T06:16:32;18.77;;;6.20;;
18693;SDS011;9477;51.414;10.362;2023-02-14T06:18:35;20.63;;;7.47;;
18693;SDS011;9477;51.414;10.362;2023-02-14T06:20:38;25.63;;;7.90;;
18693;SDS011;9477;51.414;10.362;2023-02-14T06:22:41;14.20;;;7.87;;
18693;SDS011;9477;51.414;10.362;2023-02-14T06:24:45;11.23;;;7.40;;
18693;SDS011;9477;51.414;10.362;2023-02-14T06:26:47;15.33;;;7.90;;
18693;SDS011;9477;51.414;10.362;2023-02-14T06:28:51;17.30;;;7.97;;
18693;SDS011;9477;51.414;10.362;2023-02-14T06:30:54;10.17;;;7.03;;
18693;SDS011;9477;51.414;10.362;2023-02-14T06:32:57;14.80;;;7.10;;
18693;SDS011;9477;51.414;10.362;2023-02-14T06:35:00;11.53;;;7.43;;
18693;SDS011;9477;51.414;10.362;2023-02-14T06:37:03;13.00;;;7.50;;
18693;SDS011;9477;51.414;10.362;2023-02-14T06:39:06;35.60;;;8.80;;
18693;SDS011;9477;51.414;10.362;2023-02-14T06:41:10;28.13;;;9.47;;
18693;SDS011;9477;51.414;10.362;2023-02-14T06:43:15;34.53;;;8.80;;
18693;SDS011;9477;51.414;10.362;2023-02-14T06:45:17;19.60;;;8.33;;
18693;SDS011;9477;51.414;10.362;2023-02-14T06:47:20;17.93;;;8.27;;
18693;SDS011;9477;51.414;10.362;2023-02-14T06:49:23;23.10;;;9.03;;
18693;SDS011;9477;51.414;10.362;2023-02-14T06:51:26;25.50;;;8.93;;
18693;SDS011;9477;51.414;10.362;2023-02-14T06:53:28;19.13;;;9.33;;
18693;SDS011;9477;51.414;10.362;2023-02-14T06:55:31;16.87;;;8.30;;
18693;SDS011;9477;51.414;10.362;2023-02-14T06:57:35;34.53;;;7.60;;
18693;SDS011;9477;51.414;10.362;2023-02-14T06:59:39;14.80;;;8.23;;
18693;SDS011;9477;51.414;10.362;2023-02-14T07:01:42;25.90;;;7.90;;
18693;SDS011;9477;51.414;10.362;2023-02-14T07:03:45;14.30;;;7.47;;
18693;SDS011;9477;51.414;10.362;2023-02-14T07:05:47;20.00;;;7.63;;
18693;SDS011;9477;51.414;10.362;2023-02-14T07:07:50;14.10;;;7.30;;
18693;SDS011;9477;51.414;10.362;2023-02-14T07:09:53;9.50;;;6.87;;
18693;SDS011;9477;51.414;10.362;2023-02-14T07:11:56;13.73;;;6.87;;
18693;SDS011;9477;51.414;10.362;2023-02-14T07:14:00;9.57;;;6.63;;
18693;SDS011;9477;51.414;10.362;2023-02-14T07:16:03;11.23;;;7.20;;
18693;SDS011;9477;51.414;10.362;2023-02-14T07:18:06;9.23;;;6.63;;
18693;SDS011;9477;51.414;10.362;2023-02-14T07:20:11;10.47;;;6.97;;
18693;SDS011;9477;51.414;10.362;2023-02-14T07:22:15;9.03;;;6.37;;
18693;SDS011;9477;51.414;10.362;2023-02-14T07:24:18;10.83;;;7.33;;
18693;SDS011;9477;51.414;10.362;2023-02-14T07:26:21;9.37;;;6.30;;
18693;SDS011;9477;51.414;10.362;2023-02-14T07:28:23;9.70;;;6.80;;
18693;SDS011;9477;51.414;10.362;2023-02-14T07:30:27;10.53;;;7.67;;
18693;SDS011;9477;51.414;10.362;2023-02-14T07:32:30;11.43;;;7.77;;
18693;SDS011;9477;51.414;10.362;2023-02-14T07:34:33;9.73;;;7.10;;
18693;SDS011;9477;51.414;10.362;2023-02-14T07:36:36;12.13;;;8.37;;
18693;SDS011;9477;51.414;10.362;2023-02-14T07:38:39;15.53;;;9.97;;
18693;SDS011;9477;51.414;10.362;2023-02-14T07:40:42;12.77;;;9.53;;
18693;SDS011;9477;51.414;10.362;2023-02-14T07:42:50;12.70;;;8.23;;
18693;SDS011;9477;51.414;10.362;2023-02-14T07:44:54;18.80;;;8.63;;
18693;SDS011;9477;51.414;10.362;2023-02-14T07:46:58;11.50;;;7.77;;
18693;SDS011;9477;51.414;10.362;2023-02-14T07:49:00;12.17;;;7.77;;
18693;SDS011;9477;51.414;10.362;2023-02-14T07:51:03;12.03;;;8.17;;
18693;SDS011;9477;51.414;10.362;2023-02-14T07:53:06;11.10;;;8.10;;
18693;SDS011;9477;51.414;10.362;2023-02-14T07:55:09;10.77;;;7.90;;
18693;SDS011;9477;51.414;10.362;2023-02-14T07:57:13;11.27;;;8.37;;
18693;SDS011;9477;51.414;10.362;2023-02-14T07:59:16;11.23;;;8.50;;
18693;SDS011;9477;51.414;10.362;2023-02-14T08:01:18;10.77;;;7.97;;
18693;SDS011;9477;51.414;10.362;2023-02-14T08:03:23;11.53;;;8.17;;
18693;SDS011;9477;51.414;10.362;2023-02-14T08:05:26;12.70;;;8.57;;
18693;SDS011;9477;51.414;10.362;2023-02-14T08:07:29;9.47;;;7.07;;
18693;SDS011;9477;51.414;10.362;2023-02-14T08:09:31;10.07;;;7.53;;
18693;SDS011;9477;51.414;10.362;2023-02-14T08:11:34;9.03;;;6.90;;
18693;SDS011;9477;51.414;10.362;2023-02-14T08:13:55;11.23;;;7.23;;
18693;SDS011;9477;51.414;10.362;2023-02-14T08:15:58;9.03;;;6.07;;
18693;SDS011;9477;51.414;10.362;2023-02-14T08:18:07;9.87;;;6.00;;
18693;SDS011;9477;51.414;10.362;2023-02-14T08:20:11;8.50;;;6.33;;
18693;SDS011;9477;51.414;10.362;2023-02-14T08:22:14;8.77;;;6.57;;
18693;SDS011;9477;51.414;10.362;2023-02-14T08:24:18;8.07;;;6.50;;
18693;SDS011;9477;51.414;10.362;2023-02-14T08:26:21;9.07;;;6.97;;
18693;SDS011;9477;51.414;10.362;2023-02-14T08:28:24;8.83;;;6.80;;
18693;SDS011;9477;51.414;10.362;2023-02-14T08:30:27;9.20;;;6.97;;
18693;SDS011;9477;51.414;10.362;2023-02-14T08:32:30;9.10;;;6.50;;
18693;SDS011;9477;51.414;10.362;2023-02-14T08:34:33;9.40;;;6.67;;
18693;SDS011;9477;51.414;10.362;2023-02-14T08:36:37;9.37;;;7.00;;
18693;SDS011;9477;51.414;10.362;2023-02-14T08:38:40;11.50;;;7.40;;
18693;SDS011;9477;51.414;10.362;2023-02-14T08:40:45;11.57;;;8.20;;
18693;SDS011;9477;51.414;10.362;2023-02-14T08:42:48;10.87;;;8.30;;
18693;SDS011;9477;51.414;10.362;2023-02-14T08:44:50;12.10;;;7.90;;
18693;SDS011;9477;51.414;10.362;2023-02-14T08:46:53;11.37;;;8.03;;
18693;SDS011;9477;51.414;10.362;2023-02-14T08:48:56;12.13;;;8.50;;
18693;SDS011;9477;51.414;10.362;2023-02-14T08:51:02;13.70;;;7.87;;
18693;SDS011;9477;51.414;10.362;2023-02-14T08:53:08;13.10;;;9.37;;
18693;SDS011;9477;51.414;10.362;2023-02-14T08:55:12;12.03;;;8.77;;
18693;SDS011;9477;51.414;10.362;2023-02-14T08:57:15;12.03;;;8.57;;
18693;SDS011;9477;51.414;10.362;2023-02-14T08:59:18;14.33;;;10.03;;
18693;SDS011;9477;51.414;10.362;2023-02-14T09:01:21;13.87;;;10.83;;
18693;SDS011;9477;51.414;10.362;2023-02-14T09:03:24;15.93;;;10.17;;
18693;SDS011;9477;51.414;10.362;2023-02-14T09:05:26;14.97;;;10.70;;
18693;SDS011;9477;51.414;10.362;2023-02-14T09:07:31;12.30;;;9.10;;
18693;SDS011;9477;51.414;10.362;2023-02-14T09:09:35;15.20;;;10.03;;
18693;SDS011;9477;51.414;10.362;2023-02-14T09:11:41;9.73;;;7.97;;
18693;SDS011;9477;51.414;10.362;2023-02-14T09:13:44;12.43;;;8.03;;
18693;SDS011;9477;51.414;10.362;2023-02-14T09:15:48;11.37;;;8.47;;
18693;SDS011;9477;51.414;10.362;2023-02-14T09:17:52;10.77;;;7.40;;
18693;SDS011;9477;51.414;10.362;2023-02-14T09:19:55;10.60;;;8.33;;
18693;SDS011;9477;51.414;10.362;2023-02-14T09:21:58;10.33;;;7.73;;
18693;SDS011;9477;51.414;10.362;2023-02-14T09:24:01;10.00;;;7.43;;
18693;SDS011;9477;51.414;10.362;2023-02-14T09:26:05;9.83;;;7.40;;
18693;SDS011;9477;51.414;10.362;2023-02-14T09:28:09;9.57;;;7.57;;
18693;SDS011;9477;51.414;10.362;2023-02-14T09:30:12;13.43;;;8.37;;
18693;SDS011;9477;51.414;10.362;2023-02-14T09:32:16;12.60;;;9.20;;
18693;SDS011;9477;51.414;10.362;2023-02-14T09:34:21;12.17;;;8.90;;
18693;SDS011;9477;51.414;10.362;2023-02-14T09:36:41;13.80;;;8.93;;
18693;SDS011;9477;51.414;10.362;2023-02-14T09:39:02;13.60;;;9.50;;
18693;SDS011;9477;51.414;10.362;2023-02-14T09:41:07;11.60;;;8.80;;
18693;SDS011;9477;51.414;10.362;2023-02-14T09:43:12;14.43;;;10.27;;
18693;SDS011;9477;51.414;10.362;2023-02-14T09:45:21;23.30;;;11.30;;
18693;SDS011;9477;51.414;10.362;2023-02-14T09:47:29;17.53;;;11.23;;
18693;SDS011;9477;51.414;10.362;2023-02-14T09:49:36;15.10;;;10.97;;
18693;SDS011;9477;51.414;10.362;2023-02-14T09:51:42;17.30;;;12.00;;
18693;SDS011;9477;51.414;10.362;2023-02-14T09:53:50;15.10;;;11.10;;
18693;SDS011;9477;51.414;10.362;2023-02-14T09:55:58;15.93;;;11.70;;
18693;SDS011;9477;51.414;10.362;2023-02-14T09:58:09;16.63;;;11.77;;
18693;SDS011;9477;51.414;10.362;2023-02-14T10:00:19;16.50;;;11.87;;
18693;SDS011;9477;51.414;10.362;2023-02-14T10:02:32;15.60;;;11.20;;
18693;SDS011;9477;51.414;10.362;2023-02-14T10:04:40;16.23;;;11.37;;
18693;SDS011;9477;51.414;10.362;2023-02-14T10:06:50;14.80;;;11.00;;
18693;SDS011;9477;51.414;10.362;2023-02-14T10:09:00;16.80;;;11.20;;
18693;SDS011;9477;51.414;10.362;2023-02-14T10:11:10;15.97;;;11.30;;
18693;SDS011;9477;51.414;10.362;2023-02-14T10:13:28;15.70;;;11.67;;
18693;SDS011;9477;51.414;10.362;2023-02-14T10:15:35;15.80;;;10.87;;
18693;SDS011;9477;51.414;10.362;2023-02-14T10:17:43;17.70;;;12.07;;
18693;SDS011;9477;51.414;10.362;2023-02-14T10:19:51;15.70;;;11.40;;
18693;SDS011;9477;51.414;10.362;2023-02-14T10:21:58;15.93;;;11.80;;
18693;SDS011;9477;51.414;10.362;2023-02-14T10:24:09;16.87;;;12.27;;
18693;SDS011;9477;51.414;10.362;2023-02-14T10:26:18;15.50;;;11.10;;
18693;SDS011;9477;51.414;10.362;2023-02-14T10:28:30;18.63;;;11.17;;
18693;SDS011;9477;51.414;10.362;2023-02-14T10:30:35;14.67;;;10.80;;
18693;SDS011;9477;51.414;10.362;2023-02-14T10:32:42;18.53;;;12.37;;
18693;SDS011;9477;51.414;10.362;2023-02-14T10:34:58;15.37;;;11.50;;
18693;SDS011;9477;51.414;10.362;2023-02-14T10:37:15;13.57;;;10.23;;
18693;SDS011;9477;51.414;10.362;2023-02-14T10:39:35;14.80;;;10.53;;
18693;SDS011;9477;51.414;10.362;2023-02-14T10:41:55;16.27;;;10.83;;
18693;SDS011;9477;51.414;10.362;2023-02-14T10:44:16;15.43;;;11.63;;
18693;SDS011;9477;51.414;10.362;2023-02-14T10:46:34;14.60;;;10.20;;
18693;SDS011;9477;51.414;10.362;2023-02-14T10:48:45;15.97;;;11.20;;
18693;SDS011;9477;51.414;10.362;2023-02-14T10:50:55;13.60;;;10.80;;
18693;SDS011;9477;51.414;10.362;2023-02-14T10:53:06;13.77;;;10.83;;
18693;SDS011;9477;51.414;10.362;2023-02-14T10:55:19;14.47;;;10.87;;
18693;SDS011;9477;51.414;10.362;2023-02-14T10:57:33;14.10;;;10.57;;
18693;SDS011;9477;51.414;10.362;2023-02-14T10:59:42;11.93;;;9.53;;
18693;SDS011;9477;51.414;10.362;2023-02-14T11:01:51;13.30;;;9.97;;
18693;SDS011;9477;51.414;10.362;2023-02-14T11:03:56;14.07;;;10.37;;
18693;SDS011;9477;51.414;10.362;2023-02-14T11:06:04;19.00;;;11.10;;
18693;SDS011;9477;51.414;10.362;2023-02-14T11:08:14;14.97;;;10.13;;
18693;SDS011;9477;51.414;10.362;2023-02-14T11:10:24;15.20;;;10.07;;
18693;SDS011;9477;51.414;10.362;2023-02-14T11:12:30;14.43;;;9.63;;
18693;SDS011;9477;51.414;10.362;2023-02-14T11:14:35;11.53;;;9.23;;
18693;SDS011;9477;51.414;10.362;2023-02-14T11:16:40;13.93;;;9.77;;
18693;SDS011;9477;51.414;10.362;2023-02-14T11:18:42;14.23;;;9.23;;
18693;SDS011;9477;51.414;10.362;2023-02-14T11:20:49;13.57;;;9.40;;
18693;SDS011;9477;51.414;10.362;2023-02-14T11:23:01;12.10;;;8.67;;
18693;SDS011;9477;51.414;10.362;2023-02-14T11:25:20;15.40;;;10.10;;
18693;SDS011;9477;51.414;10.362;2023-02-14T11:27:24;13.67;;;9.73;;
18693;SDS011;9477;51.414;10.362;2023-02-14T11:29:28;12.63;;;9.50;;
18693;SDS011;9477;51.414;10.362;2023-02-14T11:31:33;14.77;;;9.47;;
18693;SDS011;9477;51.414;10.362;2023-02-14T11:33:39;12.33;;;9.60;;
18693;SDS011;9477;51.414;10.362;2023-02-14T11:35:55;13.37;;;9.63;;
18693;SDS011;9477;51.414;10.362;2023-02-14T11:37:59;12.80;;;8.97;;
18693;SDS011;9477;51.414;10.362;2023-02-14T11:40:04;12.60;;;9.60;;
18693;SDS011;9477;51.414;10.362;2023-02-14T11:42:08;13.83;;;9.70;;
18693;SDS011;9477;51.414;10.362;2023-02-14T11:44:15;14.23;;;9.93;;
18693;SDS011;9477;51.414;10.362;2023-02-14T11:46:25;12.87;;;9.50;;
18693;SDS011;9477;51.414;10.362;2023-02-14T11:48:31;13.60;;;9.43;;
18693;SDS011;9477;51.414;10.362;2023-02-14T11:50:40;11.97;;;9.33;;
18693;SDS011;9477;51.414;10.362;2023-02-14T11:52:47;16.13;;;9.70;;
18693;SDS011;9477;51.414;10.362;2023-02-14T11:54:52;12.37;;;9.13;;
18693;SDS011;9477;51.414;10.362;2023-02-14T11:56:59;11.90;;;8.57;;
18693;SDS011;9477;51.414;10.362;2023-02-14T11:59:04;11.57;;;9.07;;
18693;SDS011;9477;51.414;10.362;2023-02-14T12:01:09;14.37;;;9.17;;
18693;SDS011;9477;51.414;10.362;2023-02-14T12:03:14;14.10;;;9.80;;
18693;SDS011;9477;51.414;10.362;2023-02-14T12:05:22;14.70;;;10.40;;
18693;SDS011;9477;51.414;10.362;2023-02-14T12:07:31;11.23;;;8.80;;
18693;SDS011;9477;51.414;10.362;2023-02-14T12:09:36;11.17;;;8.70;;
18693;SDS011;9477;51.414;10.362;2023-02-14T12:11:41;14.53;;;9.77;;
18693;SDS011;9477;51.414;10.362;2023-02-14T12:13:56;12.53;;;8.40;;
18693;SDS011;9477;51.414;10.362;2023-02-14T12:15:59;16.17;;;9.17;;
18693;SDS011;9477;51.414;10.362;2023-02-14T12:18:30;11.47;;;8.40;;
18693;SDS011;9477;51.414;10.362;2023-02-14T12:20:43;9.17;;;7.43;;
18693;SDS011;9477;51.414;10.362;2023-02-14T12:22:53;9.37;;;7.50;;
18693;SDS011;9477;51.414;10.362;2023-02-14T12:25:02;9.50;;;7.70;;
18693;SDS011;9477;51.414;10.362;2023-02-14T12:27:16;8.73;;;6.70;;
18693;SDS011;9477;51.414;10.362;2023-02-14T12:29:23;8.20;;;6.10;;
18693;SDS011;9477;51.414;10.362;2023-02-14T12:31:30;9.17;;;6.77;;
18693;SDS011;9477;51.414;10.362;2023-02-14T12:33:33;8.43;;;6.70;;
18693;SDS011;9477;51.414;10.362;2023-02-14T12:35:39;10.17;;;7.70;;
18693;SDS011;9477;51.414;10.362;2023-02-14T12:37:50;8.77;;;7.07;;
18693;SDS011;9477;51.414;10.362;2023-02-14T12:40:08;8.67;;;6.60;;